Weather History for PABL - May, 2013

Change the Weather History Date:

Tuesday, May 14, 2013

  Actual Average (PASK) Record (PASK)
Temperature  
Mean Temperature 14 °F -  
Max Temperature 19 °F 38 °F 53 °F (2008)
Min Temperature 10 °F 24 °F 8 °F (2013)
Degree Days  
Heating Degree Days 50    
Moisture  
Dew Point 8 °F    
Average Humidity 76    
Maximum Humidity 92    
Minimum Humidity 63    
Precipitation  
Precipitation 0.00 in - - ()
Sea Level Pressure  
Sea Level Pressure 29.82 in    
Wind  
Wind Speed 14 mph (WSW)    
Max Wind Speed 22 mph    
Max Gust Speed 28 mph    
Visibility 10 miles    
Events      
Averages and records for this station are not official NWS values.
T = Trace of Precipitation, MM = Missing Value Source: NWS Daily Summary

Daily Weather History Graph

Daily Weather History Graph

Search for Another Location

Airport or City:

Trip Planner

Search our weather history database for the weather conditions in past years. The results will help you decide how hot, cold, wet, or windy it might be!

Date:

Astronomy

May. 14, 2013 Rise Set
Actual Time 5:08 AM AKDT 12:16 AM AKDT
Civil Twilight 3:13 AM AKDT 2:08 AM AKDT
Nautical Twilight Sun does not set Sun does not set
Astronomical Twilight Sun does not set Sun does not set
Moon 9:12 AM AKDT (5/14) 3:20 AM AKDT (5/14)
Length of Visible Light 22h 55m
Length of Day
19h 07m
Waxing Crescent, 20% of the Moon is Illuminated
May 14
Waxing Crescent
May 17
First Quarter
May 24
Full
May 31
Last Quarter
Jun 8
New

Hourly Weather History & Observations

Time (AKDT) Temp. Windchill Dew Point Humidity Pressure Visibility Wind Dir Wind Speed Gust Speed Precip Events Conditions
12:16 AM 10.4 °F -9.1 °F 6.8 °F 85% 29.88 in 10.0 mi West 21.9 mph 27.6 mph N/A   Clear
12:36 AM 10.4 °F -8.2 °F 6.8 °F 85% 29.88 in 10.0 mi West 19.6 mph 25.3 mph N/A   Clear
12:56 AM 10.4 °F -8.2 °F 6.8 °F 85% 29.88 in 10.0 mi West 19.6 mph - N/A   Clear
1:16 AM 10.4 °F -8.6 °F 6.8 °F 85% 29.88 in 10.0 mi West 20.7 mph 24.2 mph N/A   Clear
1:36 AM 10.4 °F -7.7 °F 6.8 °F 85% 29.89 in 10.0 mi West 18.4 mph 24.2 mph N/A   Mostly Cloudy
1:56 AM 12.2 °F -6.3 °F 8.6 °F 85% 29.89 in 10.0 mi West 20.7 mph - N/A   Overcast
2:16 AM 10.4 °F -8.2 °F 6.8 °F 85% 29.88 in 10.0 mi WNW 19.6 mph - N/A   Overcast
2:36 AM 10.4 °F -6.6 °F 8.6 °F 92% 29.89 in 10.0 mi WNW 16.1 mph 23.0 mph N/A   Overcast
2:56 AM 10.4 °F -5.4 °F 6.8 °F 85% 29.89 in 10.0 mi WNW 13.8 mph - N/A   Overcast
3:16 AM 12.2 °F -2.5 °F 8.6 °F 85% 29.89 in 10.0 mi WNW 12.7 mph - N/A   Overcast
3:36 AM 12.2 °F -2.5 °F 6.8 °F 79% 29.89 in 10.0 mi WNW 12.7 mph - N/A   Overcast
3:56 AM 12.2 °F -3.7 °F 8.6 °F 85% 29.89 in 10.0 mi WNW 15.0 mph 18.4 mph N/A   Overcast
4:16 AM 12.2 °F -1.8 °F 8.6 °F 85% 29.89 in 10.0 mi WNW 11.5 mph - N/A   Overcast
4:36 AM 12.2 °F -3.1 °F 8.6 °F 85% 29.88 in 10.0 mi WNW 13.8 mph - N/A   Overcast
4:56 AM 12.2 °F -2.5 °F 8.6 °F 85% 29.88 in 10.0 mi West 12.7 mph - N/A   Overcast
5:16 AM 12.2 °F -1.0 °F 8.6 °F 85% 29.88 in 10.0 mi West 10.4 mph - N/A   Overcast
5:36 AM 12.2 °F -3.1 °F 8.6 °F 85% 29.87 in 10.0 mi West 13.8 mph - N/A   Overcast
5:56 AM 12.2 °F -1.8 °F 8.6 °F 85% 29.87 in 10.0 mi West 11.5 mph - N/A   Overcast
6:16 AM 12.2 °F -2.5 °F 6.8 °F 79% 29.86 in 10.0 mi West 12.7 mph 18.4 mph N/A   Overcast
6:36 AM 12.2 °F -1.8 °F 8.6 °F 85% 29.86 in 10.0 mi West 11.5 mph - N/A   Overcast
6:56 AM 12.2 °F -0.2 °F 8.6 °F 85% 29.86 in 10.0 mi West 9.2 mph - N/A   Overcast
7:16 AM 12.2 °F -1.0 °F 8.6 °F 85% 29.86 in 10.0 mi West 10.4 mph - N/A   Overcast
7:36 AM 12.2 °F -3.1 °F 8.6 °F 85% 29.86 in 10.0 mi West 13.8 mph - N/A   Overcast
7:56 AM 12.2 °F -2.5 °F 8.6 °F 85% 29.85 in 10.0 mi West 12.7 mph - N/A   Overcast
8:16 AM 12.2 °F -0.2 °F 8.6 °F 85% 29.85 in 10.0 mi West 9.2 mph - N/A   Overcast
8:36 AM 12.2 °F -3.1 °F 8.6 °F 85% 29.85 in 10.0 mi WNW 13.8 mph - N/A   Overcast
8:56 AM 12.2 °F -1.0 °F 8.6 °F 85% 29.85 in 10.0 mi West 10.4 mph 16.1 mph N/A   Overcast
9:16 AM 12.2 °F -1.8 °F 8.6 °F 85% 29.85 in 10.0 mi WNW 11.5 mph - N/A   Overcast
9:36 AM 14.0 °F 0.5 °F 8.6 °F 79% 29.85 in 10.0 mi West 11.5 mph - N/A   Overcast
9:56 AM 14.0 °F 1.2 °F 8.6 °F 79% 29.85 in 10.0 mi West 10.4 mph - N/A   Overcast
10:16 AM 14.0 °F -0.2 °F 8.6 °F 79% 29.85 in 7.0 mi WNW 12.7 mph - N/A   Overcast
10:36 AM 14.0 °F -0.2 °F 8.6 °F 79% 29.85 in 10.0 mi WNW 12.7 mph - N/A   Overcast
10:56 AM 14.0 °F 2.0 °F 8.6 °F 79% 29.85 in 10.0 mi WNW 9.2 mph - N/A   Overcast
11:16 AM 14.0 °F -0.2 °F 8.6 °F 79% 29.84 in 10.0 mi West 12.7 mph - N/A   Overcast
11:36 AM 15.8 °F 2.7 °F 8.6 °F 73% 29.84 in 10.0 mi West 11.5 mph - N/A   Overcast
11:56 AM 15.8 °F 4.2 °F 8.6 °F 73% 29.84 in 10.0 mi WNW 9.2 mph - N/A   Overcast
12:16 PM 15.8 °F 6.1 °F 8.6 °F 73% 29.84 in 10.0 mi West 6.9 mph - N/A   Overcast
12:36 PM 15.8 °F 8.6 °F 8.6 °F 73% 29.84 in 10.0 mi WNW 4.6 mph - N/A   Overcast
12:56 PM 15.8 °F 6.1 °F 8.6 °F 73% 29.83 in 10.0 mi West 6.9 mph - N/A   Overcast
1:16 PM 15.8 °F 4.2 °F 6.8 °F 68% 29.83 in 6.0 mi SW 9.2 mph - N/A   Overcast
1:36 PM 15.8 °F 6.1 °F 8.6 °F 73% 29.83 in 10.0 mi SSW 6.9 mph - N/A   Overcast
1:56 PM 15.8 °F 6.1 °F 8.6 °F 73% 29.83 in 10.0 mi SSW 6.9 mph - N/A   Overcast
2:16 PM 17.6 °F 7.3 °F 8.6 °F 68% 29.82 in 10.0 mi SSW 8.1 mph - N/A   Overcast
2:36 PM 17.6 °F 6.4 °F 8.6 °F 68% 29.82 in 10.0 mi WSW 9.2 mph - N/A   Overcast
2:56 PM 17.6 °F 5.0 °F 8.6 °F 68% 29.81 in 10.0 mi SW 11.5 mph - N/A   Overcast
3:16 PM 17.6 °F 6.4 °F 8.6 °F 68% 29.81 in 10.0 mi SW 9.2 mph - N/A   Overcast
3:36 PM 17.6 °F 8.2 °F 8.6 °F 68% 29.80 in 10.0 mi SW 6.9 mph - N/A   Overcast
3:56 PM 17.6 °F 6.4 °F 8.6 °F 68% 29.80 in 10.0 mi SSW 9.2 mph - N/A   Overcast
4:16 PM 17.6 °F 6.4 °F 8.6 °F 68% 29.80 in 10.0 mi SSW 9.2 mph - N/A   Mostly Cloudy
4:36 PM 17.6 °F 6.4 °F 8.6 °F 68% 29.79 in 10.0 mi SSW 9.2 mph - N/A   Partly Cloudy
4:56 PM 17.6 °F 5.7 °F 8.6 °F 68% 29.79 in 10.0 mi SW 10.4 mph - N/A   Clear
5:16 PM 17.6 °F 7.3 °F 8.6 °F 68% 29.78 in 10.0 mi SW 8.1 mph - N/A   Clear
5:36 PM 17.6 °F 6.4 °F 8.6 °F 68% 29.78 in 10.0 mi South 9.2 mph - N/A   Partly Cloudy
5:56 PM 19.4 °F 10.4 °F 8.6 °F 63% 29.78 in 10.0 mi SSW 6.9 mph - N/A   Partly Cloudy
6:16 PM 17.6 °F 10.7 °F 8.6 °F 68% 29.77 in 10.0 mi SSW 4.6 mph - N/A   Clear
6:36 PM 19.4 °F 9.5 °F 8.6 °F 63% 29.77 in 10.0 mi SSW 8.1 mph - N/A   Clear
6:56 PM 19.4 °F 10.4 °F 8.6 °F 63% 29.77 in 10.0 mi SSW 6.9 mph - N/A   Clear
7:16 PM 19.4 °F 9.5 °F 8.6 °F 63% 29.77 in 10.0 mi SE 8.1 mph - N/A   Scattered Clouds
7:36 PM 19.4 °F 7.9 °F 10.4 °F 68% 29.76 in 10.0 mi SE 10.4 mph - N/A   Scattered Clouds
7:56 PM 19.4 °F 7.9 °F 10.4 °F 68% 29.75 in 10.0 mi ESE 10.4 mph - N/A   Partly Cloudy
8:16 PM 19.4 °F 7.9 °F 10.4 °F 68% 29.75 in 10.0 mi ESE 10.4 mph - N/A   Clear
8:36 PM 19.4 °F 8.6 °F 8.6 °F 63% 29.74 in 10.0 mi SE 9.2 mph - N/A   Clear
8:56 PM 19.4 °F 9.5 °F 10.4 °F 68% 29.74 in 10.0 mi SE 8.1 mph - N/A   Clear
9:16 PM 17.6 °F 7.3 °F 8.6 °F 68% 29.73 in 10.0 mi SE 8.1 mph - N/A   Clear
9:36 PM 19.4 °F 9.5 °F 8.6 °F 63% 29.73 in 10.0 mi ESE 8.1 mph - N/A   Clear
9:56 PM 17.6 °F 6.4 °F 8.6 °F 68% 29.73 in 10.0 mi ESE 9.2 mph - N/A   Clear
10:16 PM 17.6 °F 6.4 °F 8.6 °F 68% 29.72 in 10.0 mi East 9.2 mph - N/A   Clear
10:36 PM 15.8 °F 4.2 °F 8.6 °F 73% 29.72 in 10.0 mi ESE 9.2 mph - N/A   Scattered Clouds
10:56 PM 17.6 °F 6.4 °F 8.6 °F 68% 29.72 in 10.0 mi ESE 9.2 mph - N/A   Overcast
11:16 PM 15.8 °F 6.1 °F 8.6 °F 73% 29.72 in 10.0 mi East 6.9 mph - N/A   Overcast
11:36 PM 15.8 °F 4.2 °F 8.6 °F 73% 29.71 in 10.0 mi East 9.2 mph - N/A   Overcast
11:56 PM 17.6 °F 7.3 °F 10.4 °F 73% 29.71 in 10.0 mi ESE 8.1 mph - N/A   Overcast